Time;durP1;ratioP1;P1;durP2;ratioP2;P2;SDS_P1;SDS_P2;PMS_P1;PMS_P2;Temp;Humidity;BMP_temperature;BMP_pressure;BME280_temperature;BME280_humidity;BME280_pressure;Samples;Min_cycle;Max_cycle;Signal;HPM_P1;HPM_P2
2022/05/08 00:00:00;;;;;;;16.52;2.97;;;10.40;99.90;;;;;;5136510;27;20039;-76
2022/05/08 00:02:27;;;;;;;21.02;3.35;;;10.50;99.90;;;;;;5102234;27;20493;-75
2022/05/08 00:04:53;;;;;;;17.92;2.85;;;10.50;99.90;;;;;;5136472;27;20082;-75
2022/05/08 00:07:22;;;;;;;19.30;3.10;;;10.40;99.90;;;;;;5136429;27;20085;-75
2022/05/08 00:09:49;;;;;;;16.75;2.80;;;10.50;99.90;;;;;;5119113;27;20451;-75
2022/05/08 00:12:15;;;;;;;17.13;3.25;;;10.50;99.90;;;;;;5119170;27;20054;-75
2022/05/08 00:14:43;;;;;;;21.60;4.13;;;10.50;99.90;;;;;;5118741;27;20047;-75
2022/05/08 00:17:13;;;;;;;12.35;2.95;;;10.50;99.90;;;;;;5135677;27;20470;-76
2022/05/08 00:19:40;;;;;;;18.95;3.47;;;10.50;99.90;;;;;;5135911;27;20054;-75
2022/05/08 00:22:06;;;;;;;20.88;3.55;;;10.50;99.90;;;;;;5118743;27;20058;-75
2022/05/08 00:24:33;;;;;;;20.50;3.88;;;10.40;99.90;;;;;;5119184;27;20133;-75
2022/05/08 00:26:58;;;;;;;15.65;3.05;;;10.30;99.90;;;;;;5135884;27;20050;-75
2022/05/08 00:29:24;;;;;;;17.02;3.10;;;10.40;99.90;;;;;;5118903;27;20043;-75
2022/05/08 00:31:50;;;;;;;16.77;3.00;;;10.30;99.90;;;;;;5135647;27;20043;-75
2022/05/08 00:34:15;;;;;;;15.80;2.92;;;10.30;99.90;;;;;;5118687;27;20092;-75
2022/05/08 00:36:41;;;;;;;16.25;2.97;;;10.20;99.90;;;;;;5118436;27;20055;-75
2022/05/08 00:39:07;;;;;;;11.60;2.60;;;10.10;99.90;;;;;;5118530;27;20043;-76
2022/05/08 00:41:32;;;;;;;12.77;3.10;;;10.10;99.90;;;;;;5118596;27;20096;-75
2022/05/08 00:43:58;;;;;;;19.00;4.25;;;10.10;99.90;;;;;;5101415;27;20043;-75
2022/05/08 00:46:24;;;;;;;14.75;2.97;;;9.90;99.90;;;;;;5118592;27;20043;-75
2022/05/08 00:48:50;;;;;;;21.90;3.20;;;9.90;99.90;;;;;;5134824;27;20125;-75
2022/05/08 00:51:17;;;;;;;22.20;3.00;;;9.90;99.90;;;;;;5101445;27;20043;-76
2022/05/08 00:53:49;;;;;;;14.50;2.95;;;9.90;99.90;;;;;;5135368;27;20061;-75
2022/05/08 00:56:16;;;;;;;12.85;2.50;;;9.90;99.90;;;;;;5135929;27;20383;-75
2022/05/08 00:58:43;;;;;;;16.13;3.33;;;10.00;99.90;;;;;;5135690;27;20058;-75
2022/05/08 01:01:09;;;;;;;16.77;3.20;;;9.80;99.90;;;;;;5135414;27;20039;-75
2022/05/08 01:03:36;;;;;;;15.10;3.10;;;9.80;99.90;;;;;;5134128;27;20039;-75
2022/05/08 01:06:11;;;;;;;14.13;2.97;;;9.70;99.90;;;;;;5134715;27;20482;-75
2022/05/08 01:08:48;;;;;;;15.98;3.35;;;9.70;99.90;;;;;;5135231;27;20505;-75
2022/05/08 01:11:14;;;;;;;11.80;3.05;;;9.70;99.90;;;;;;5135008;27;20125;-75
2022/05/08 01:13:41;;;;;;;14.13;3.00;;;9.60;99.90;;;;;;5117847;27;20043;-75
2022/05/08 01:16:12;;;;;;;15.77;3.47;;;9.60;99.90;;;;;;5117606;27;20619;-75
2022/05/08 01:18:38;;;;;;;14.98;2.80;;;9.60;99.90;;;;;;5134376;27;20084;-75
2022/05/08 01:21:07;;;;;;;19.45;3.13;;;9.60;99.90;;;;;;5169494;27;20042;-75
2022/05/08 01:23:33;;;;;;;18.17;3.35;;;9.70;99.90;;;;;;5117995;27;20131;-76
2022/05/08 01:25:59;;;;;;;17.85;3.50;;;9.60;99.90;;;;;;5117803;27;20047;-75
2022/05/08 01:28:25;;;;;;;14.85;3.35;;;9.70;99.90;;;;;;5117497;27;20043;-75
2022/05/08 01:30:53;;;;;;;13.82;3.55;;;9.70;99.90;;;;;;5117512;27;20134;-76
2022/05/08 01:33:20;;;;;;;18.08;3.53;;;9.80;99.90;;;;;;5117609;27;20047;-76
2022/05/08 01:35:46;;;;;;;14.07;3.25;;;9.80;99.90;;;;;;5134338;27;20383;-75
2022/05/08 01:38:17;;;;;;;13.43;3.25;;;9.60;99.90;;;;;;5134640;27;20050;-75
2022/05/08 01:40:43;;;;;;;14.57;3.22;;;9.60;99.90;;;;;;5117541;27;20050;-75
2022/05/08 01:43:10;;;;;;;14.55;3.05;;;9.50;99.90;;;;;;5134459;27;20129;-75
2022/05/08 01:45:37;;;;;;;13.55;2.97;;;9.40;99.90;;;;;;5134233;27;20047;-75
2022/05/08 01:50:48;;;;;;;13.05;3.25;;;9.30;99.90;;;;;;5134176;27;20058;-75
2022/05/08 01:53:14;;;;;;;14.65;3.42;;;9.30;99.90;;;;;;5168966;27;20042;-75
2022/05/08 01:55:40;;;;;;;9.82;2.70;;;9.30;99.90;;;;;;5133719;27;20577;-75
2022/05/08 01:58:05;;;;;;;15.00;2.60;;;9.20;99.90;;;;;;5134226;27;20053;-76
2022/05/08 02:00:31;;;;;;;17.13;2.95;;;9.20;99.90;;;;;;5117236;27;20066;-76
2022/05/08 02:03:00;;;;;;;14.18;2.97;;;9.20;99.90;;;;;;5134160;27;20126;-75
2022/05/08 02:05:28;;;;;;;13.60;2.80;;;9.10;99.90;;;;;;5133799;27;20047;-75
2022/05/08 02:07:54;;;;;;;12.23;2.33;;;9.00;99.90;;;;;;5134090;27;20448;-75
2022/05/08 02:10:20;;;;;;;11.38;2.63;;;9.00;99.90;;;;;;5133839;27;20420;-75
2022/05/08 02:12:46;;;;;;;13.38;2.40;;;9.10;99.90;;;;;;5133741;27;20126;-75
2022/05/08 02:15:13;;;;;;;9.85;2.00;;;9.10;99.90;;;;;;5133319;27;20039;-75
2022/05/08 02:17:39;;;;;;;16.58;3.10;;;9.10;99.90;;;;;;5116258;27;20086;-76
2022/05/08 02:20:07;;;;;;;8.40;2.30;;;9.10;99.90;;;;;;5116651;27;20051;-75
2022/05/08 02:22:34;;;;;;;15.68;2.88;;;9.10;99.90;;;;;;5133622;27;20039;-75
2022/05/08 02:25:00;;;;;;;14.52;3.10;;;9.00;99.90;;;;;;5116960;27;20184;-75
2022/05/08 02:27:33;;;;;;;8.23;2.20;;;9.00;99.90;;;;;;5133628;27;20089;-75
2022/05/08 02:29:59;;;;;;;9.23;2.33;;;9.00;99.90;;;;;;5116821;27;20093;-75
2022/05/08 02:32:25;;;;;;;16.25;2.80;;;8.90;99.90;;;;;;5116607;27;20088;-75
2022/05/08 02:34:50;;;;;;;11.90;2.28;;;8.90;99.90;;;;;;5116509;27;20112;-75
2022/05/08 02:37:16;;;;;;;10.25;2.33;;;8.90;99.90;;;;;;5099369;27;20047;-75
2022/05/08 02:39:43;;;;;;;11.82;2.90;;;8.90;99.90;;;;;;5116119;28;20043;-76
2022/05/08 02:42:08;;;;;;;9.63;2.20;;;8.70;99.90;;;;;;5133334;27;20047;-75
2022/05/08 02:44:34;;;;;;;9.00;2.13;;;8.80;99.90;;;;;;5116632;28;20052;-75
2022/05/08 02:47:00;;;;;;;13.68;3.00;;;8.80;99.90;;;;;;5134089;27;20183;-75
2022/05/08 02:49:26;;;;;;;11.48;2.40;;;9.00;99.90;;;;;;5132692;28;20044;-75
2022/05/08 02:51:51;;;;;;;14.93;2.70;;;8.90;99.90;;;;;;5116448;28;20051;-75
2022/05/08 02:54:17;;;;;;;8.38;2.03;;;9.00;99.90;;;;;;5099114;28;20039;-76
2022/05/08 02:59:41;;;;;;;10.82;2.65;;;8.90;99.90;;;;;;5085713;28;20043;-75
2022/05/08 03:02:07;;;;;;;11.23;2.20;;;9.00;99.90;;;;;;5116266;28;20058;-75
2022/05/08 03:04:33;;;;;;;13.00;2.38;;;9.10;99.90;;;;;;5116308;28;20046;-75
2022/05/08 03:07:02;;;;;;;8.23;2.05;;;9.10;99.90;;;;;;5133098;27;20043;-75
2022/05/08 03:09:29;;;;;;;10.32;2.28;;;9.10;99.90;;;;;;5133394;27;20051;-75
2022/05/08 03:11:55;;;;;;;14.40;2.65;;;9.00;99.90;;;;;;5116290;28;20043;-74
2022/05/08 03:14:20;;;;;;;15.15;3.17;;;9.00;99.90;;;;;;5133095;27;20439;-76
2022/05/08 03:16:47;;;;;;;10.00;2.53;;;9.00;99.90;;;;;;5099281;28;20082;-75
2022/05/08 03:19:13;;;;;;;11.77;2.08;;;9.10;99.90;;;;;;5098699;28;20046;-75
2022/05/08 03:21:40;;;;;;;10.65;2.33;;;9.00;99.90;;;;;;5116144;28;20479;-75
2022/05/08 03:24:07;;;;;;;11.13;2.10;;;8.90;99.90;;;;;;5133130;28;20104;-74
2022/05/08 03:26:33;;;;;;;9.43;2.60;;;8.80;99.90;;;;;;5116656;27;20082;-75
2022/05/08 03:28:59;;;;;;;7.32;1.83;;;8.70;99.90;;;;;;5137043;27;20078;-75
2022/05/08 03:31:25;;;;;;;13.52;2.63;;;8.60;99.90;;;;;;5137260;27;20382;-75
2022/05/08 03:33:51;;;;;;;9.00;2.20;;;8.60;99.90;;;;;;5102578;27;20533;-75
2022/05/08 03:36:17;;;;;;;14.07;2.28;;;8.70;99.90;;;;;;5102538;27;20129;-75
2022/05/08 03:38:44;;;;;;;12.13;2.42;;;8.70;99.90;;;;;;5119908;27;20054;-75
2022/05/08 03:41:14;;;;;;;9.38;2.50;;;8.80;99.90;;;;;;5136915;27;20047;-75
2022/05/08 03:43:41;;;;;;;10.20;2.35;;;8.90;99.90;;;;;;5136956;27;20500;-75
2022/05/08 03:46:07;;;;;;;14.25;2.55;;;8.90;99.90;;;;;;5136690;27;20051;-75
2022/05/08 03:48:35;;;;;;;9.07;2.20;;;8.90;99.90;;;;;;5119068;27;20036;-76
2022/05/08 03:51:01;;;;;;;10.45;2.47;;;8.90;99.90;;;;;;5136687;27;20131;-75
2022/05/08 03:53:27;;;;;;;14.60;2.50;;;8.90;99.90;;;;;;5102953;27;20436;-77
2022/05/08 03:55:53;;;;;;;9.15;2.50;;;8.90;99.90;;;;;;5118853;27;20051;-75
2022/05/08 03:58:18;;;;;;;10.65;2.67;;;8.80;99.90;;;;;;5136055;27;20087;-75
2022/05/08 04:00:44;;;;;;;8.93;2.10;;;8.80;99.90;;;;;;5119314;27;20043;-75
2022/05/08 04:03:10;;;;;;;10.27;2.00;;;8.90;99.90;;;;;;5119069;27;20082;-76
2022/05/08 04:05:36;;;;;;;8.13;1.90;;;8.80;99.90;;;;;;5136247;27;20043;-76
2022/05/08 04:08:01;;;;;;;8.55;2.45;;;8.80;99.90;;;;;;5136468;27;20078;-75
2022/05/08 04:10:27;;;;;;;11.88;2.55;;;8.70;99.90;;;;;;5136461;27;20078;-75
2022/05/08 04:12:53;;;;;;;11.05;2.10;;;8.70;99.90;;;;;;5136249;27;20055;-75
2022/05/08 04:18:05;;;;;;;8.98;1.95;;;8.60;99.90;;;;;;5135331;27;20047;-75
2022/05/08 04:20:30;;;;;;;11.27;2.10;;;8.60;99.90;;;;;;5118910;27;20091;-75
2022/05/08 04:25:40;;;;;;;10.00;1.88;;;8.80;99.90;;;;;;5136176;27;20410;-75
2022/05/08 04:28:06;;;;;;;8.35;2.40;;;8.90;99.90;;;;;;5115924;27;20040;-76
2022/05/08 04:30:32;;;;;;;7.45;2.00;;;8.80;99.90;;;;;;5097136;28;20046;-75
2022/05/08 04:32:58;;;;;;;6.90;1.73;;;8.90;99.90;;;;;;5115282;28;20043;-75
2022/05/08 04:35:23;;;;;;;9.00;1.88;;;8.90;99.90;;;;;;5132258;27;20127;-75
2022/05/08 04:37:49;;;;;;;6.85;2.00;;;9.00;99.90;;;;;;5115307;28;20386;-75
2022/05/08 04:40:15;;;;;;;9.55;1.85;;;9.00;99.90;;;;;;5114966;28;20402;-75
2022/05/08 04:42:40;;;;;;;10.68;1.98;;;9.00;99.90;;;;;;5115177;28;20048;-75
2022/05/08 04:45:07;;;;;;;5.95;2.00;;;9.00;99.90;;;;;;5132336;27;20116;-75
2022/05/08 04:47:33;;;;;;;8.50;2.20;;;9.00;99.90;;;;;;5114905;28;20128;-75
2022/05/08 04:49:58;;;;;;;9.70;1.90;;;9.00;99.90;;;;;;5115024;28;20093;-75
2022/05/08 04:52:24;;;;;;;10.63;2.03;;;9.20;99.90;;;;;;5132180;27;20046;-74
2022/05/08 04:54:50;;;;;;;7.72;1.83;;;9.30;99.90;;;;;;5115095;28;20039;-75
2022/05/08 04:57:15;;;;;;;7.68;2.05;;;9.30;99.90;;;;;;5114656;28;20052;-75
2022/05/08 04:59:41;;;;;;;9.48;2.17;;;9.40;99.90;;;;;;5114323;28;20419;-76
2022/05/08 05:02:08;;;;;;;6.90;1.80;;;9.30;99.90;;;;;;5114851;28;20138;-75
2022/05/08 05:04:36;;;;;;;9.40;1.88;;;9.40;99.90;;;;;;5098032;28;20092;-75
2022/05/08 05:07:02;;;;;;;6.93;1.67;;;9.40;99.90;;;;;;5149620;27;20050;-75
2022/05/08 05:09:28;;;;;;;8.18;1.73;;;9.50;99.90;;;;;;5114501;28;20051;-75
2022/05/08 05:11:54;;;;;;;7.70;1.63;;;9.50;99.90;;;;;;5097740;28;20040;-75
2022/05/08 05:14:20;;;;;;;8.77;2.05;;;9.60;99.90;;;;;;5096941;28;20047;-75
2022/05/08 05:16:46;;;;;;;6.20;1.75;;;9.70;99.90;;;;;;5114811;28;20088;-75
2022/05/08 05:19:12;;;;;;;8.23;2.10;;;9.90;99.90;;;;;;5096827;28;20096;-75
2022/05/08 05:21:37;;;;;;;7.38;1.75;;;10.10;99.90;;;;;;5131598;27;20557;-75
2022/05/08 05:24:04;;;;;;;8.70;2.05;;;10.20;99.90;;;;;;5114239;28;20054;-75
2022/05/08 05:26:29;;;;;;;8.27;1.85;;;10.40;99.90;;;;;;5113999;28;20052;-75
2022/05/08 05:28:55;;;;;;;11.13;2.25;;;10.70;99.90;;;;;;5096815;28;20050;-75
2022/05/08 05:31:21;;;;;;;8.48;1.88;;;10.80;99.90;;;;;;5131277;27;20048;-75
2022/05/08 05:33:46;;;;;;;10.60;1.85;;;11.00;99.90;;;;;;5097410;28;20044;-75
2022/05/08 05:36:13;;;;;;;9.82;1.73;;;11.20;99.90;;;;;;5097101;28;20479;-75
2022/05/08 05:38:39;;;;;;;13.45;1.80;;;11.30;99.90;;;;;;5114290;28;20066;-75
2022/05/08 05:41:05;;;;;;;7.97;1.42;;;11.50;99.90;;;;;;5113901;28;20553;-75
2022/05/08 05:43:32;;;;;;;9.77;1.58;;;11.50;99.90;;;;;;5130969;27;20440;-75
2022/05/08 05:48:42;;;;;;;7.97;1.73;;;11.80;99.90;;;;;;5099022;28;20055;-74
2022/05/08 05:51:07;;;;;;;7.93;1.08;;;11.60;99.90;;;;;;5113279;28;20494;-75
2022/05/08 05:53:34;;;;;;;11.63;1.60;;;11.50;99.90;;;;;;5113695;28;20047;-75
2022/05/08 05:56:00;;;;;;;12.00;1.50;;;11.70;99.90;;;;;;5113608;28;20051;-76
2022/05/08 05:58:25;;;;;;;14.90;2.42;;;11.80;99.80;;;;;;5113155;28;20198;-75
2022/05/08 06:00:51;;;;;;;7.88;1.60;;;11.60;99.60;;;;;;5130889;27;20048;-75
2022/05/08 06:03:17;;;;;;;12.27;1.50;;;11.50;99.80;;;;;;5096637;28;20567;-75
2022/05/08 06:05:43;;;;;;;8.10;1.27;;;11.70;99.90;;;;;;5113434;28;20063;-75
2022/05/08 06:08:09;;;;;;;11.52;1.45;;;11.90;99.80;;;;;;5130562;27;20043;-75
2022/05/08 06:10:35;;;;;;;9.50;1.80;;;11.90;99.40;;;;;;5113261;28;20051;-75
2022/05/08 06:13:01;;;;;;;7.90;1.50;;;11.80;99.50;;;;;;5096722;28;20193;-74
2022/05/08 06:15:27;;;;;;;9.70;1.90;;;11.90;99.90;;;;;;5130354;27;20134;-75
2022/05/08 06:17:53;;;;;;;11.63;1.65;;;12.20;99.70;;;;;;5113165;28;20070;-75
2022/05/08 06:20:18;;;;;;;16.27;1.75;;;12.30;99.40;;;;;;5113246;28;20051;-75
2022/05/08 06:22:45;;;;;;;10.75;2.05;;;12.50;99.20;;;;;;5096236;28;20039;-75
2022/05/08 06:25:12;;;;;;;9.05;1.23;;;12.40;99.10;;;;;;5113501;28;20043;-75
2022/05/08 06:27:38;;;;;;;10.55;1.25;;;12.50;99.20;;;;;;5113337;28;20051;-75
2022/05/08 06:30:05;;;;;;;12.20;1.13;;;12.50;99.20;;;;;;5113367;28;20040;-75
2022/05/08 06:32:31;;;;;;;14.00;1.70;;;12.60;98.90;;;;;;5130143;27;20134;-75
2022/05/08 06:34:56;;;;;;;15.00;1.40;;;12.70;98.90;;;;;;5112911;28;20130;-75
2022/05/08 06:37:22;;;;;;;8.98;1.50;;;12.80;98.60;;;;;;5130020;27;20052;-75
2022/05/08 06:39:48;;;;;;;11.07;1.40;;;12.60;98.70;;;;;;5095911;28;20043;-75
2022/05/08 06:42:13;;;;;;;13.93;1.80;;;12.80;98.60;;;;;;5113189;28;20122;-75
2022/05/08 06:44:39;;;;;;;14.10;1.85;;;12.90;98.40;;;;;;5096121;28;20043;-75
2022/05/08 06:47:05;;;;;;;12.45;1.70;;;13.10;98.50;;;;;;5113005;28;20050;-75
2022/05/08 06:49:31;;;;;;;10.23;1.23;;;13.20;98.50;;;;;;5095213;28;20047;-74
2022/05/08 06:51:56;;;;;;;11.57;1.73;;;13.20;98.20;;;;;;5113013;28;20046;-75
2022/05/08 06:54:23;;;;;;;11.98;1.70;;;13.10;98.30;;;;;;5129523;27;20035;-75
2022/05/08 06:56:49;;;;;;;11.30;1.35;;;12.90;98.30;;;;;;5112777;28;20123;-75
2022/05/08 07:01:59;;;;;;;10.98;1.40;;;12.90;98.10;;;;;;5114503;28;20087;-75
2022/05/08 07:04:25;;;;;;;6.85;1.40;;;12.50;98.00;;;;;;5116953;28;20110;-75
2022/05/08 07:06:52;;;;;;;6.88;1.42;;;12.60;98.20;;;;;;5116973;28;20043;-75
2022/05/08 07:09:18;;;;;;;9.05;1.70;;;12.80;98.40;;;;;;5134330;27;20052;-74
2022/05/08 07:11:47;;;;;;;11.07;1.23;;;12.90;98.30;;;;;;5099792;28;20043;-75
2022/05/08 07:14:14;;;;;;;14.43;1.90;;;13.00;98.20;;;;;;5134203;27;20036;-75
2022/05/08 07:16:40;;;;;;;12.63;1.58;;;12.90;98.00;;;;;;5099786;28;20130;-75
2022/05/08 07:19:05;;;;;;;11.45;1.90;;;12.80;97.90;;;;;;5133150;27;20134;-75
2022/05/08 07:21:31;;;;;;;11.35;1.65;;;12.80;98.10;;;;;;5116748;28;20047;-75
2022/05/08 07:23:57;;;;;;;16.38;1.63;;;12.80;98.20;;;;;;5116684;28;20075;-75
2022/05/08 07:26:22;;;;;;;10.45;1.70;;;12.80;98.00;;;;;;5133589;27;20040;-77
2022/05/08 07:28:48;;;;;;;12.68;2.38;;;12.70;98.10;;;;;;5133704;27;20136;-74
2022/05/08 07:31:14;;;;;;;13.45;1.85;;;12.90;98.10;;;;;;5116649;28;20135;-81
2022/05/08 07:33:40;;;;;;;13.05;1.52;;;12.90;97.90;;;;;;5099697;28;20053;-85
2022/05/08 07:36:12;;;;;;;15.18;1.73;;;13.20;98.00;;;;;;5116375;28;20066;-82
2022/05/08 07:38:39;;;;;;;12.25;2.10;;;13.30;97.50;;;;;;5133687;27;20486;-80
2022/05/08 07:41:05;;;;;;;10.50;1.60;;;13.20;97.30;;;;;;5116410;28;20039;-80
2022/05/08 07:43:31;;;;;;;10.13;1.50;;;13.20;97.20;;;;;;5116609;27;20047;-80
2022/05/08 07:45:57;;;;;;;13.20;1.90;;;13.30;97.60;;;;;;5116411;28;20139;-80
2022/05/08 07:48:22;;;;;;;10.63;1.30;;;13.40;97.70;;;;;;5115849;28;20055;-80
2022/05/08 07:50:49;;;;;;;10.60;1.60;;;13.40;97.50;;;;;;5115998;28;20050;-80
2022/05/08 07:53:15;;;;;;;9.00;1.63;;;13.30;97.50;;;;;;5116462;28;20040;-81
2022/05/08 07:55:41;;;;;;;13.15;2.03;;;13.50;97.70;;;;;;5115812;28;20478;-85
2022/05/08 07:58:07;;;;;;;14.30;1.65;;;13.30;97.50;;;;;;5153396;27;20054;-83
2022/05/08 08:00:32;;;;;;;9.43;1.38;;;13.60;97.50;;;;;;5108525;28;20043;-83
2022/05/08 08:02:58;;;;;;;16.27;1.83;;;13.40;97.60;;;;;;5117179;28;20082;-84
2022/05/08 08:05:25;;;;;;;13.32;1.90;;;13.50;97.40;;;;;;5115697;28;20134;-81
2022/05/08 08:07:50;;;;;;;7.95;1.23;;;13.40;97.60;;;;;;5150744;27;20397;-81
2022/05/08 08:10:17;;;;;;;15.23;1.90;;;13.30;97.60;;;;;;5099134;28;20043;-81
2022/05/08 08:12:42;;;;;;;12.88;1.65;;;13.40;97.50;;;;;;5115138;28;20047;-81
2022/05/08 08:15:09;;;;;;;10.18;1.73;;;13.60;97.70;;;;;;5115603;28;20048;-80
2022/05/08 08:17:35;;;;;;;13.45;2.10;;;13.60;97.60;;;;;;5115493;28;20424;-80
2022/05/08 08:20:02;;;;;;;6.75;1.45;;;13.60;97.40;;;;;;5114855;28;20048;-81
2022/05/08 08:22:28;;;;;;;9.63;1.65;;;13.50;97.40;;;;;;5116142;28;20082;-80
2022/05/08 08:24:54;;;;;;;11.23;1.60;;;13.70;97.90;;;;;;5115837;28;20055;-80
2022/05/08 08:27:20;;;;;;;10.35;1.90;;;13.90;97.80;;;;;;5115607;28;20135;-81
2022/05/08 08:29:47;;;;;;;12.23;2.03;;;14.00;97.40;;;;;;5116707;28;20101;-79
2022/05/08 08:32:12;;;;;;;8.50;1.67;;;13.90;97.50;;;;;;5115506;28;20517;-80
2022/05/08 08:34:38;;;;;;;10.45;2.00;;;14.00;97.60;;;;;;5115332;28;20036;-79
2022/05/08 08:37:04;;;;;;;9.63;2.00;;;13.90;97.50;;;;;;5149828;27;20104;-79
2022/05/08 08:39:30;;;;;;;9.35;1.80;;;13.70;97.40;;;;;;5115421;28;20052;-79
2022/05/08 08:42:28;;;;;;;13.07;1.75;;;13.70;97.70;;;;;;5115452;28;20506;-79
2022/05/08 08:47:55;;;;;;;14.93;2.25;;;14.10;97.30;;;;;;5114682;28;20082;-80
2022/05/08 08:50:26;;;;;;;10.32;1.90;;;14.30;96.90;;;;;;5125794;27;20037;-81
2022/05/08 08:52:53;;;;;;;15.43;2.17;;;14.20;96.90;;;;;;5134818;27;20043;-80
2022/05/08 08:55:22;;;;;;;17.35;2.13;;;13.90;96.90;;;;;;5135318;27;20378;-79
2022/05/08 08:57:48;;;;;;;10.85;1.95;;;14.00;97.10;;;;;;5136403;27;20054;-79
2022/05/08 09:00:15;;;;;;;11.27;2.17;;;14.00;97.00;;;;;;5118193;27;20047;-81
2022/05/08 09:02:42;;;;;;;14.45;1.90;;;14.20;96.70;;;;;;5135493;27;20069;-81
2022/05/08 09:05:09;;;;;;;11.38;1.42;;;14.40;96.70;;;;;;5117958;27;20043;-76
2022/05/08 09:07:44;;;;;;;11.88;1.58;;;14.60;97.50;;;;;;5135467;27;20051;-76
2022/05/08 09:10:13;;;;;;;16.50;2.00;;;14.40;97.10;;;;;;5134987;27;20138;-78
2022/05/08 09:12:42;;;;;;;15.57;2.25;;;14.00;97.00;;;;;;5136195;27;20047;-77
2022/05/08 09:15:28;;;;;;;9.02;1.35;;;14.10;97.40;;;;;;5135029;27;20081;-77
2022/05/08 09:18:00;;;;;;;11.95;1.52;;;14.10;96.80;;;;;;5134457;27;20137;-77
2022/05/08 09:20:39;;;;;;;15.88;1.70;;;14.20;96.70;;;;;;5135086;27;20054;-78
2022/05/08 09:23:19;;;;;;;9.60;1.42;;;14.30;96.60;;;;;;5134802;27;20039;-77
2022/05/08 09:25:47;;;;;;;11.63;1.73;;;14.20;97.00;;;;;;5134744;27;20436;-79
2022/05/08 09:28:33;;;;;;;13.30;1.98;;;14.20;96.90;;;;;;5134628;27;20126;-76
2022/05/08 09:31:04;;;;;;;9.98;1.95;;;14.40;96.30;;;;;;5134643;27;20394;-77
2022/05/08 09:33:41;;;;;;;11.65;2.00;;;14.80;96.90;;;;;;5134800;27;20130;-78
2022/05/08 09:36:17;;;;;;;14.98;2.25;;;15.40;96.70;;;;;;5134535;27;20466;-78
2022/05/08 09:38:49;;;;;;;11.50;1.85;;;15.60;96.20;;;;;;5118806;27;20051;-78
2022/05/08 09:41:28;;;;;;;14.50;2.00;;;15.70;96.60;;;;;;5134704;27;20219;-76
2022/05/08 09:44:14;;;;;;;13.50;1.92;;;16.00;96.30;;;;;;5134622;27;20039;-73
2022/05/08 09:46:45;;;;;;;14.35;2.13;;;16.00;96.10;;;;;;5117610;27;20047;-79
2022/05/08 09:49:18;;;;;;;11.30;2.20;;;16.10;96.00;;;;;;5133777;27;20107;-77
2022/05/08 09:51:46;;;;;;;10.07;2.10;;;16.20;96.20;;;;;;5117189;27;20045;-78
2022/05/08 09:54:13;;;;;;;11.65;1.95;;;16.10;95.50;;;;;;5135538;27;20134;-78
2022/05/08 09:56:39;;;;;;;9.85;1.80;;;16.40;96.00;;;;;;5116930;27;20130;-77
2022/05/08 09:59:10;;;;;;;10.63;1.77;;;16.80;95.90;;;;;;5117020;27;20142;-81
2022/05/08 10:01:41;;;;;;;12.38;2.20;;;16.90;95.50;;;;;;5117380;27;20452;-78
2022/05/08 10:04:07;;;;;;;11.18;1.60;;;16.50;95.60;;;;;;5117021;27;20087;-79
2022/05/08 10:06:36;;;;;;;10.55;1.83;;;16.30;96.00;;;;;;5134184;27;20081;-78
2022/05/08 10:14:33;;;;;;;11.95;2.33;;;17.00;95.40;;;;;;5134058;27;19927;-79
2022/05/08 10:17:09;;;;;;;16.58;2.38;;;17.20;95.70;;;;;;5134141;27;20112;-79
2022/05/08 10:19:35;;;;;;;6.50;1.70;;;17.30;95.60;;;;;;5116615;27;20043;-78
2022/05/08 10:22:03;;;;;;;12.25;1.50;;;17.50;95.60;;;;;;5133676;27;20121;-78
2022/05/08 10:24:34;;;;;;;14.73;2.35;;;17.50;95.80;;;;;;5133781;27;20513;-78
2022/05/08 10:27:15;;;;;;;11.48;2.20;;;17.20;95.00;;;;;;5133639;27;20047;-79
2022/05/08 10:29:50;;;;;;;9.25;1.92;;;16.60;95.10;;;;;;5134230;27;20043;-77
2022/05/08 10:32:31;;;;;;;11.18;1.67;;;16.70;95.10;;;;;;5133599;27;20035;-85
2022/05/08 10:35:16;;;;;;;12.32;2.20;;;17.00;95.60;;;;;;5116137;27;20046;-84
2022/05/08 10:37:51;;;;;;;11.67;2.17;;;16.90;95.80;;;;;;5116455;27;20047;-87
2022/05/08 10:40:23;;;;;;;10.35;1.60;;;16.60;95.80;;;;;;5100629;28;20050;-88
2022/05/08 10:43:00;;;;;;;19.65;2.30;;;16.50;95.50;;;;;;5133995;27;20046;-86
2022/05/08 10:45:46;;;;;;;8.43;1.90;;;16.50;95.80;;;;;;5116140;27;20518;-81
2022/05/08 10:48:17;;;;;;;10.48;1.92;;;16.50;95.50;;;;;;5115594;27;20058;-83
2022/05/08 10:50:44;;;;;;;16.63;1.95;;;16.70;95.40;;;;;;5116057;28;20051;-83
2022/05/08 10:53:24;;;;;;;14.65;2.25;;;16.90;95.10;;;;;;5135752;28;20506;-77
2022/05/08 10:55:51;;;;;;;8.35;2.05;;;17.20;95.70;;;;;;5135359;27;20497;-74
2022/05/08 10:58:17;;;;;;;10.15;2.08;;;17.50;94.60;;;;;;5132654;27;20059;-78
2022/05/08 11:00:43;;;;;;;15.68;2.45;;;17.50;95.20;;;;;;5116243;27;20055;-78
2022/05/08 11:03:09;;;;;;;11.45;2.28;;;18.00;94.70;;;;;;5116010;28;20051;-78
2022/05/08 11:05:38;;;;;;;10.30;1.88;;;18.20;94.70;;;;;;5133269;28;20047;-78
2022/05/08 11:08:11;;;;;;;10.35;1.88;;;18.20;94.70;;;;;;5116791;28;20100;-78
2022/05/08 11:10:42;;;;;;;12.55;2.15;;;18.60;94.70;;;;;;5133203;27;20402;-78
2022/05/08 11:13:13;;;;;;;11.45;1.65;;;18.00;94.40;;;;;;5134739;28;20130;-78
2022/05/08 11:15:46;;;;;;;10.95;1.83;;;18.50;94.40;;;;;;5119704;28;20050;-85
2022/05/08 11:18:23;;;;;;;8.98;1.70;;;18.70;94.10;;;;;;5132605;28;20043;-77
2022/05/08 11:20:57;;;;;;;9.30;1.65;;;18.90;93.70;;;;;;5133183;28;20508;-77
2022/05/08 11:23:44;;;;;;;7.18;1.60;;;18.90;93.90;;;;;;5133174;27;20123;-80
2022/05/08 11:26:11;;;;;;;8.73;1.77;;;18.90;93.80;;;;;;5134005;28;20055;-76
2022/05/08 11:28:49;;;;;;;9.35;1.70;;;18.60;93.50;;;;;;5133013;28;20039;-76
2022/05/08 11:31:17;;;;;;;10.02;1.98;;;18.40;94.40;;;;;;5116208;28;20047;-76
2022/05/08 11:36:32;;;;;;;10.25;1.98;;;18.90;94.30;;;;;;5132818;28;20516;-76
2022/05/08 11:39:09;;;;;;;11.07;1.65;;;19.00;93.80;;;;;;5133125;28;20482;-76
2022/05/08 11:41:41;;;;;;;8.48;1.85;;;19.20;94.00;;;;;;5115590;28;20064;-77
2022/05/08 11:44:13;;;;;;;8.73;1.65;;;19.60;93.80;;;;;;5115669;27;20047;-77
2022/05/08 11:46:46;;;;;;;7.30;1.40;;;19.90;93.60;;;;;;5115933;27;20047;-76
2022/05/08 11:49:29;;;;;;;8.93;1.65;;;19.90;93.40;;;;;;5135593;27;20149;-76
2022/05/08 11:51:57;;;;;;;7.75;1.70;;;19.60;93.50;;;;;;5136926;27;20455;-76
2022/05/08 11:54:38;;;;;;;11.07;1.75;;;19.60;93.90;;;;;;5136592;27;20122;-76
2022/05/08 11:57:17;;;;;;;9.27;2.22;;;19.60;94.00;;;;;;5119385;27;20090;-76
2022/05/08 11:59:48;;;;;;;10.77;2.00;;;19.90;93.60;;;;;;5136683;27;20047;-76
2022/05/08 12:02:15;;;;;;;4.85;1.60;;;20.20;93.40;;;;;;5136785;27;20051;-76
2022/05/08 12:04:50;;;;;;;13.85;2.00;;;20.40;92.40;;;;;;5136709;27;20107;-76
2022/05/08 12:07:16;;;;;;;6.80;1.48;;;20.40;92.60;;;;;;5136283;27;20054;-76
2022/05/08 12:09:45;;;;;;;7.95;2.13;;;20.10;93.10;;;;;;5136725;27;20043;-74
2022/05/08 12:12:28;;;;;;;8.88;1.80;;;19.70;93.10;;;;;;5136143;27;20482;-76
2022/05/08 12:15:04;;;;;;;9.00;1.50;;;20.10;93.60;;;;;;5136211;27;20079;-76
2022/05/08 12:17:50;;;;;;;10.18;1.85;;;20.60;93.40;;;;;;5136617;27;20058;-76
2022/05/08 12:20:33;;;;;;;10.63;2.35;;;20.30;93.70;;;;;;5135459;27;20100;-75
2022/05/08 12:23:04;;;;;;;9.38;1.48;;;20.70;93.30;;;;;;5118995;27;20111;-75
2022/05/08 12:25:31;;;;;;;12.73;2.13;;;20.70;92.70;;;;;;5135881;27;20055;-75
2022/05/08 12:27:57;;;;;;;11.18;1.90;;;20.70;92.60;;;;;;5136042;27;20055;-75
2022/05/08 12:30:23;;;;;;;9.20;1.83;;;20.30;92.60;;;;;;5136071;27;20043;-82
2022/05/08 12:32:49;;;;;;;11.38;1.80;;;20.50;92.40;;;;;;5119089;27;20130;-80
2022/05/08 12:35:15;;;;;;;8.52;1.63;;;19.80;92.50;;;;;;5118781;27;20062;-80
2022/05/08 12:37:41;;;;;;;9.30;2.17;;;19.50;92.50;;;;;;5135964;27;20039;-80
2022/05/08 12:40:08;;;;;;;11.60;1.70;;;19.50;92.90;;;;;;5136258;27;20064;-84
2022/05/08 12:42:35;;;;;;;8.05;1.55;;;20.00;92.80;;;;;;5101733;27;20043;-85
2022/05/08 12:45:01;;;;;;;11.32;1.95;;;19.60;93.00;;;;;;5135827;27;20668;-84
2022/05/08 12:47:26;;;;;;;13.65;1.90;;;19.20;92.80;;;;;;5102079;27;20043;-84
2022/05/08 12:49:53;;;;;;;12.80;1.98;;;19.30;92.80;;;;;;5118034;27;20055;-83
2022/05/08 12:52:19;;;;;;;10.60;2.20;;;19.50;92.70;;;;;;5135585;27;20062;-83
2022/05/08 12:54:45;;;;;;;16.40;2.00;;;19.60;93.10;;;;;;5135241;27;20039;-83
2022/05/08 12:57:12;;;;;;;12.65;2.20;;;19.60;92.90;;;;;;5118404;27;20051;-76
2022/05/08 12:59:47;;;;;;;9.57;1.95;;;19.70;93.10;;;;;;5135111;27;20054;-76
2022/05/08 13:02:21;;;;;;;8.02;1.60;;;20.10;92.80;;;;;;5119720;27;20120;-76
2022/05/08 13:04:50;;;;;;;9.73;1.83;;;20.70;92.70;;;;;;5135603;27;20135;-76
2022/05/08 13:07:15;;;;;;;8.40;2.00;;;21.00;92.60;;;;;;5135141;27;20073;-75
2022/05/08 13:09:41;;;;;;;8.40;1.42;;;20.90;92.70;;;;;;5118278;27;20062;-76
2022/05/08 13:12:08;;;;;;;7.13;1.98;;;21.30;92.80;;;;;;5117850;27;20059;-76
2022/05/08 13:14:34;;;;;;;7.25;1.63;;;21.50;92.90;;;;;;5135084;27;20130;-76